sensor_id;sensor_type;location;lat;lon;timestamp;P1;durP1;ratioP1;P2;durP2;ratioP2
54823;SDS011;40724;53.196;5.980;2023-04-15T00:01:27;10.00;;;4.68;;
54823;SDS011;40724;53.196;5.980;2023-04-15T00:03:54;8.18;;;3.97;;
54823;SDS011;40724;53.196;5.980;2023-04-15T00:06:21;8.13;;;4.50;;
54823;SDS011;40724;53.196;5.980;2023-04-15T00:08:47;8.85;;;5.78;;
54823;SDS011;40724;53.196;5.980;2023-04-15T00:11:17;8.52;;;5.13;;
54823;SDS011;40724;53.196;5.980;2023-04-15T00:13:44;13.25;;;5.47;;
54823;SDS011;40724;53.196;5.980;2023-04-15T00:16:11;10.85;;;4.32;;
54823;SDS011;40724;53.196;5.980;2023-04-15T00:18:37;9.80;;;4.97;;
54823;SDS011;40724;53.196;5.980;2023-04-15T00:21:03;10.57;;;4.80;;
54823;SDS011;40724;53.196;5.980;2023-04-15T00:23:30;10.73;;;4.97;;
54823;SDS011;40724;53.196;5.980;2023-04-15T00:25:56;8.18;;;4.50;;
54823;SDS011;40724;53.196;5.980;2023-04-15T00:28:22;10.05;;;4.38;;
54823;SDS011;40724;53.196;5.980;2023-04-15T00:30:48;12.25;;;4.93;;
54823;SDS011;40724;53.196;5.980;2023-04-15T00:33:15;8.63;;;4.30;;
54823;SDS011;40724;53.196;5.980;2023-04-15T00:35:41;9.30;;;5.80;;
54823;SDS011;40724;53.196;5.980;2023-04-15T00:38:08;14.05;;;5.53;;
54823;SDS011;40724;53.196;5.980;2023-04-15T00:40:34;9.48;;;5.30;;
54823;SDS011;40724;53.196;5.980;2023-04-15T00:43:00;10.15;;;5.35;;
54823;SDS011;40724;53.196;5.980;2023-04-15T00:45:26;7.35;;;5.05;;
54823;SDS011;40724;53.196;5.980;2023-04-15T00:47:52;12.32;;;5.97;;
54823;SDS011;40724;53.196;5.980;2023-04-15T00:50:19;11.25;;;6.00;;
54823;SDS011;40724;53.196;5.980;2023-04-15T00:52:45;7.32;;;5.05;;
54823;SDS011;40724;53.196;5.980;2023-04-15T00:55:11;8.45;;;5.63;;
54823;SDS011;40724;53.196;5.980;2023-04-15T00:57:38;7.80;;;5.75;;
54823;SDS011;40724;53.196;5.980;2023-04-15T01:00:04;12.02;;;5.63;;
54823;SDS011;40724;53.196;5.980;2023-04-15T01:02:32;8.00;;;5.45;;
54823;SDS011;40724;53.196;5.980;2023-04-15T01:04:59;10.32;;;6.30;;
54823;SDS011;40724;53.196;5.980;2023-04-15T01:07:26;10.75;;;6.78;;
54823;SDS011;40724;53.196;5.980;2023-04-15T01:09:52;9.30;;;5.63;;
54823;SDS011;40724;53.196;5.980;2023-04-15T01:12:18;9.32;;;6.10;;
54823;SDS011;40724;53.196;5.980;2023-04-15T01:14:45;10.85;;;5.93;;
54823;SDS011;40724;53.196;5.980;2023-04-15T01:17:11;10.40;;;6.43;;
54823;SDS011;40724;53.196;5.980;2023-04-15T01:19:37;10.65;;;7.47;;
54823;SDS011;40724;53.196;5.980;2023-04-15T01:22:04;9.68;;;5.80;;
54823;SDS011;40724;53.196;5.980;2023-04-15T01:24:30;15.55;;;7.57;;
54823;SDS011;40724;53.196;5.980;2023-04-15T01:26:58;13.57;;;6.72;;
54823;SDS011;40724;53.196;5.980;2023-04-15T01:29:24;12.10;;;6.65;;
54823;SDS011;40724;53.196;5.980;2023-04-15T01:31:51;11.57;;;7.32;;
54823;SDS011;40724;53.196;5.980;2023-04-15T01:34:18;10.02;;;5.82;;
54823;SDS011;40724;53.196;5.980;2023-04-15T01:36:44;9.10;;;6.75;;
54823;SDS011;40724;53.196;5.980;2023-04-15T01:39:10;13.23;;;5.97;;
54823;SDS011;40724;53.196;5.980;2023-04-15T01:41:36;14.00;;;7.78;;
54823;SDS011;40724;53.196;5.980;2023-04-15T01:44:02;16.42;;;8.13;;
54823;SDS011;40724;53.196;5.980;2023-04-15T01:46:29;11.90;;;6.75;;
54823;SDS011;40724;53.196;5.980;2023-04-15T01:48:55;13.88;;;7.45;;
54823;SDS011;40724;53.196;5.980;2023-04-15T01:51:21;12.93;;;7.97;;
54823;SDS011;40724;53.196;5.980;2023-04-15T01:53:47;13.30;;;7.15;;
54823;SDS011;40724;53.196;5.980;2023-04-15T01:56:14;11.57;;;7.13;;
54823;SDS011;40724;53.196;5.980;2023-04-15T01:58:40;8.35;;;6.80;;
54823;SDS011;40724;53.196;5.980;2023-04-15T02:01:06;11.15;;;7.65;;
54823;SDS011;40724;53.196;5.980;2023-04-15T02:03:34;12.82;;;7.75;;
54823;SDS011;40724;53.196;5.980;2023-04-15T02:06:01;13.10;;;8.10;;
54823;SDS011;40724;53.196;5.980;2023-04-15T02:08:28;11.93;;;8.02;;
54823;SDS011;40724;53.196;5.980;2023-04-15T02:10:55;10.65;;;6.43;;
54823;SDS011;40724;53.196;5.980;2023-04-15T02:13:21;10.77;;;8.13;;
54823;SDS011;40724;53.196;5.980;2023-04-15T02:15:47;11.10;;;7.40;;
54823;SDS011;40724;53.196;5.980;2023-04-15T02:18:14;9.98;;;7.10;;
54823;SDS011;40724;53.196;5.980;2023-04-15T02:20:41;11.85;;;7.63;;
54823;SDS011;40724;53.196;5.980;2023-04-15T02:23:11;11.32;;;7.55;;
54823;SDS011;40724;53.196;5.980;2023-04-15T02:25:37;12.35;;;8.00;;
54823;SDS011;40724;53.196;5.980;2023-04-15T02:28:04;13.65;;;7.68;;
54823;SDS011;40724;53.196;5.980;2023-04-15T02:30:31;14.25;;;8.38;;
54823;SDS011;40724;53.196;5.980;2023-04-15T02:32:57;15.65;;;9.30;;
54823;SDS011;40724;53.196;5.980;2023-04-15T02:35:23;15.63;;;8.43;;
54823;SDS011;40724;53.196;5.980;2023-04-15T02:37:50;16.42;;;8.30;;
54823;SDS011;40724;53.196;5.980;2023-04-15T02:40:16;8.63;;;7.25;;
54823;SDS011;40724;53.196;5.980;2023-04-15T02:42:43;11.70;;;8.57;;
54823;SDS011;40724;53.196;5.980;2023-04-15T02:45:09;8.75;;;6.85;;
54823;SDS011;40724;53.196;5.980;2023-04-15T02:47:37;11.63;;;8.65;;
54823;SDS011;40724;53.196;5.980;2023-04-15T02:50:07;11.48;;;7.88;;
54823;SDS011;40724;53.196;5.980;2023-04-15T02:52:35;13.77;;;8.77;;
54823;SDS011;40724;53.196;5.980;2023-04-15T02:55:01;13.10;;;7.70;;
54823;SDS011;40724;53.196;5.980;2023-04-15T02:57:28;11.20;;;7.72;;
54823;SDS011;40724;53.196;5.980;2023-04-15T02:59:55;12.55;;;8.50;;
54823;SDS011;40724;53.196;5.980;2023-04-15T03:02:21;12.43;;;8.13;;
54823;SDS011;40724;53.196;5.980;2023-04-15T03:04:47;11.65;;;8.45;;
54823;SDS011;40724;53.196;5.980;2023-04-15T03:07:13;21.50;;;9.95;;
54823;SDS011;40724;53.196;5.980;2023-04-15T03:09:39;12.45;;;7.93;;
54823;SDS011;40724;53.196;5.980;2023-04-15T03:12:05;12.20;;;8.90;;
54823;SDS011;40724;53.196;5.980;2023-04-15T03:14:32;14.25;;;9.00;;
54823;SDS011;40724;53.196;5.980;2023-04-15T03:16:58;16.55;;;8.88;;
54823;SDS011;40724;53.196;5.980;2023-04-15T03:19:24;12.75;;;8.65;;
54823;SDS011;40724;53.196;5.980;2023-04-15T03:21:50;14.80;;;9.20;;
54823;SDS011;40724;53.196;5.980;2023-04-15T03:24:17;14.65;;;8.60;;
54823;SDS011;40724;53.196;5.980;2023-04-15T03:26:43;13.55;;;9.13;;
54823;SDS011;40724;53.196;5.980;2023-04-15T03:29:09;15.80;;;8.68;;
54823;SDS011;40724;53.196;5.980;2023-04-15T03:31:35;11.63;;;8.23;;
54823;SDS011;40724;53.196;5.980;2023-04-15T03:34:01;17.83;;;9.25;;
54823;SDS011;40724;53.196;5.980;2023-04-15T03:36:30;16.85;;;9.32;;
54823;SDS011;40724;53.196;5.980;2023-04-15T03:38:59;12.82;;;8.20;;
54823;SDS011;40724;53.196;5.980;2023-04-15T03:41:28;16.67;;;10.10;;
54823;SDS011;40724;53.196;5.980;2023-04-15T03:43:55;15.43;;;9.80;;
54823;SDS011;40724;53.196;5.980;2023-04-15T03:46:21;12.57;;;8.38;;
54823;SDS011;40724;53.196;5.980;2023-04-15T03:48:47;14.55;;;9.60;;
54823;SDS011;40724;53.196;5.980;2023-04-15T03:51:13;13.10;;;8.95;;
54823;SDS011;40724;53.196;5.980;2023-04-15T03:53:39;15.82;;;9.38;;
54823;SDS011;40724;53.196;5.980;2023-04-15T03:56:05;14.15;;;9.02;;
54823;SDS011;40724;53.196;5.980;2023-04-15T03:58:31;17.40;;;10.80;;
54823;SDS011;40724;53.196;5.980;2023-04-15T04:00:58;15.20;;;8.90;;
54823;SDS011;40724;53.196;5.980;2023-04-15T04:03:24;14.35;;;9.35;;
54823;SDS011;40724;53.196;5.980;2023-04-15T04:05:50;12.63;;;7.95;;
54823;SDS011;40724;53.196;5.980;2023-04-15T04:08:16;14.10;;;9.88;;
54823;SDS011;40724;53.196;5.980;2023-04-15T04:10:43;15.45;;;10.13;;
54823;SDS011;40724;53.196;5.980;2023-04-15T04:13:10;16.67;;;9.95;;
54823;SDS011;40724;53.196;5.980;2023-04-15T04:15:36;16.17;;;9.88;;
54823;SDS011;40724;53.196;5.980;2023-04-15T04:18:02;13.68;;;8.65;;
54823;SDS011;40724;53.196;5.980;2023-04-15T04:20:28;12.98;;;8.57;;
54823;SDS011;40724;53.196;5.980;2023-04-15T04:22:56;14.82;;;10.07;;
54823;SDS011;40724;53.196;5.980;2023-04-15T04:25:22;13.35;;;8.23;;
54823;SDS011;40724;53.196;5.980;2023-04-15T04:27:48;12.82;;;8.15;;
54823;SDS011;40724;53.196;5.980;2023-04-15T04:30:14;15.55;;;9.77;;
54823;SDS011;40724;53.196;5.980;2023-04-15T04:32:41;13.85;;;9.85;;
54823;SDS011;40724;53.196;5.980;2023-04-15T04:35:07;14.25;;;10.23;;
54823;SDS011;40724;53.196;5.980;2023-04-15T04:37:33;13.30;;;9.10;;
54823;SDS011;40724;53.196;5.980;2023-04-15T04:39:59;15.00;;;9.70;;
54823;SDS011;40724;53.196;5.980;2023-04-15T04:42:26;12.65;;;9.35;;
54823;SDS011;40724;53.196;5.980;2023-04-15T04:44:52;12.25;;;9.52;;
54823;SDS011;40724;53.196;5.980;2023-04-15T04:47:18;14.75;;;9.57;;
54823;SDS011;40724;53.196;5.980;2023-04-15T04:49:44;13.02;;;9.63;;
54823;SDS011;40724;53.196;5.980;2023-04-15T04:52:10;14.23;;;9.68;;
54823;SDS011;40724;53.196;5.980;2023-04-15T04:54:37;13.73;;;9.48;;
54823;SDS011;40724;53.196;5.980;2023-04-15T04:57:03;14.15;;;9.48;;
54823;SDS011;40724;53.196;5.980;2023-04-15T04:59:29;12.10;;;8.45;;
54823;SDS011;40724;53.196;5.980;2023-04-15T05:01:55;12.45;;;8.48;;
54823;SDS011;40724;53.196;5.980;2023-04-15T05:04:21;15.70;;;9.65;;
54823;SDS011;40724;53.196;5.980;2023-04-15T05:06:48;16.15;;;9.93;;
54823;SDS011;40724;53.196;5.980;2023-04-15T05:09:14;11.88;;;8.68;;
54823;SDS011;40724;53.196;5.980;2023-04-15T05:11:40;14.93;;;9.82;;
54823;SDS011;40724;53.196;5.980;2023-04-15T05:14:06;16.65;;;9.55;;
54823;SDS011;40724;53.196;5.980;2023-04-15T05:16:33;12.27;;;8.73;;
54823;SDS011;40724;53.196;5.980;2023-04-15T05:18:59;18.80;;;9.55;;
54823;SDS011;40724;53.196;5.980;2023-04-15T05:21:25;10.98;;;8.18;;
54823;SDS011;40724;53.196;5.980;2023-04-15T05:23:51;11.13;;;8.55;;
54823;SDS011;40724;53.196;5.980;2023-04-15T05:26:17;12.13;;;8.70;;
54823;SDS011;40724;53.196;5.980;2023-04-15T05:28:44;14.85;;;9.70;;
54823;SDS011;40724;53.196;5.980;2023-04-15T05:31:10;12.90;;;9.20;;
54823;SDS011;40724;53.196;5.980;2023-04-15T05:33:36;12.90;;;9.65;;
54823;SDS011;40724;53.196;5.980;2023-04-15T05:36:02;14.30;;;10.50;;
54823;SDS011;40724;53.196;5.980;2023-04-15T05:38:28;12.63;;;9.20;;
54823;SDS011;40724;53.196;5.980;2023-04-15T05:40:55;15.40;;;9.40;;
54823;SDS011;40724;53.196;5.980;2023-04-15T05:43:21;13.63;;;9.18;;
54823;SDS011;40724;53.196;5.980;2023-04-15T05:45:47;13.52;;;9.43;;
54823;SDS011;40724;53.196;5.980;2023-04-15T05:48:13;17.02;;;9.55;;
54823;SDS011;40724;53.196;5.980;2023-04-15T05:50:40;14.18;;;9.52;;
54823;SDS011;40724;53.196;5.980;2023-04-15T05:53:06;12.70;;;8.63;;
54823;SDS011;40724;53.196;5.980;2023-04-15T05:55:33;13.02;;;8.80;;
54823;SDS011;40724;53.196;5.980;2023-04-15T05:57:59;11.52;;;8.13;;
54823;SDS011;40724;53.196;5.980;2023-04-15T06:00:25;14.23;;;9.02;;
54823;SDS011;40724;53.196;5.980;2023-04-15T06:02:51;13.85;;;8.73;;
54823;SDS011;40724;53.196;5.980;2023-04-15T06:05:17;12.27;;;7.32;;
54823;SDS011;40724;53.196;5.980;2023-04-15T06:07:44;10.40;;;7.78;;
54823;SDS011;40724;53.196;5.980;2023-04-15T06:10:10;12.68;;;9.20;;
54823;SDS011;40724;53.196;5.980;2023-04-15T06:12:36;11.20;;;7.75;;
54823;SDS011;40724;53.196;5.980;2023-04-15T06:15:03;11.57;;;8.38;;
54823;SDS011;40724;53.196;5.980;2023-04-15T06:17:30;10.90;;;8.25;;
54823;SDS011;40724;53.196;5.980;2023-04-15T06:19:56;11.85;;;7.10;;
54823;SDS011;40724;53.196;5.980;2023-04-15T06:22:23;10.00;;;7.50;;
54823;SDS011;40724;53.196;5.980;2023-04-15T06:24:49;12.93;;;6.50;;
54823;SDS011;40724;53.196;5.980;2023-04-15T06:27:15;12.40;;;7.85;;
54823;SDS011;40724;53.196;5.980;2023-04-15T06:29:42;11.82;;;7.28;;
54823;SDS011;40724;53.196;5.980;2023-04-15T06:32:08;10.30;;;7.68;;
54823;SDS011;40724;53.196;5.980;2023-04-15T06:34:35;12.70;;;7.47;;
54823;SDS011;40724;53.196;5.980;2023-04-15T06:37:01;9.07;;;7.00;;
54823;SDS011;40724;53.196;5.980;2023-04-15T06:39:27;14.40;;;9.05;;
54823;SDS011;40724;53.196;5.980;2023-04-15T06:41:53;13.02;;;8.18;;
54823;SDS011;40724;53.196;5.980;2023-04-15T06:44:20;15.35;;;9.00;;
54823;SDS011;40724;53.196;5.980;2023-04-15T06:46:46;14.50;;;8.48;;
54823;SDS011;40724;53.196;5.980;2023-04-15T06:49:13;15.07;;;9.43;;
54823;SDS011;40724;53.196;5.980;2023-04-15T06:51:41;14.13;;;9.45;;
54823;SDS011;40724;53.196;5.980;2023-04-15T06:54:07;13.73;;;9.88;;
54823;SDS011;40724;53.196;5.980;2023-04-15T06:56:33;15.25;;;10.00;;
54823;SDS011;40724;53.196;5.980;2023-04-15T06:58:59;12.90;;;9.77;;
54823;SDS011;40724;53.196;5.980;2023-04-15T07:01:26;13.93;;;9.23;;
54823;SDS011;40724;53.196;5.980;2023-04-15T07:03:52;13.57;;;9.32;;
54823;SDS011;40724;53.196;5.980;2023-04-15T07:06:18;19.40;;;10.85;;
54823;SDS011;40724;53.196;5.980;2023-04-15T07:08:46;15.50;;;9.70;;
54823;SDS011;40724;53.196;5.980;2023-04-15T07:11:12;16.75;;;10.43;;
54823;SDS011;40724;53.196;5.980;2023-04-15T07:13:39;14.52;;;9.23;;
54823;SDS011;40724;53.196;5.980;2023-04-15T07:16:05;16.27;;;9.15;;
54823;SDS011;40724;53.196;5.980;2023-04-15T07:18:31;12.13;;;9.25;;
54823;SDS011;40724;53.196;5.980;2023-04-15T07:20:57;16.45;;;9.05;;
54823;SDS011;40724;53.196;5.980;2023-04-15T07:23:23;13.55;;;9.43;;
54823;SDS011;40724;53.196;5.980;2023-04-15T07:25:49;13.32;;;8.65;;
54823;SDS011;40724;53.196;5.980;2023-04-15T07:28:16;11.50;;;7.80;;
54823;SDS011;40724;53.196;5.980;2023-04-15T07:30:42;11.32;;;7.53;;
54823;SDS011;40724;53.196;5.980;2023-04-15T07:33:08;10.60;;;7.10;;
54823;SDS011;40724;53.196;5.980;2023-04-15T07:35:35;10.43;;;7.65;;
54823;SDS011;40724;53.196;5.980;2023-04-15T07:38:00;12.55;;;6.10;;
54823;SDS011;40724;53.196;5.980;2023-04-15T07:40:27;14.60;;;6.88;;
54823;SDS011;40724;53.196;5.980;2023-04-15T07:42:53;11.20;;;7.25;;
54823;SDS011;40724;53.196;5.980;2023-04-15T07:45:22;9.25;;;5.93;;
54823;SDS011;40724;53.196;5.980;2023-04-15T07:47:48;8.23;;;5.40;;
54823;SDS011;40724;53.196;5.980;2023-04-15T07:50:17;9.88;;;6.10;;
54823;SDS011;40724;53.196;5.980;2023-04-15T07:52:43;7.65;;;5.40;;
54823;SDS011;40724;53.196;5.980;2023-04-15T07:55:10;9.23;;;5.32;;
54823;SDS011;40724;53.196;5.980;2023-04-15T07:57:36;7.07;;;4.68;;
54823;SDS011;40724;53.196;5.980;2023-04-15T08:00:03;10.15;;;4.93;;
54823;SDS011;40724;53.196;5.980;2023-04-15T08:02:30;7.82;;;5.38;;
54823;SDS011;40724;53.196;5.980;2023-04-15T08:04:56;8.75;;;4.43;;
54823;SDS011;40724;53.196;5.980;2023-04-15T08:07:22;9.15;;;5.13;;
54823;SDS011;40724;53.196;5.980;2023-04-15T08:09:49;6.80;;;4.07;;
54823;SDS011;40724;53.196;5.980;2023-04-15T08:12:16;6.38;;;4.38;;
54823;SDS011;40724;53.196;5.980;2023-04-15T08:14:42;4.93;;;3.00;;
54823;SDS011;40724;53.196;5.980;2023-04-15T08:17:08;7.18;;;3.97;;
54823;SDS011;40724;53.196;5.980;2023-04-15T08:19:34;7.07;;;4.50;;
54823;SDS011;40724;53.196;5.980;2023-04-15T08:22:01;9.45;;;4.78;;
54823;SDS011;40724;53.196;5.980;2023-04-15T08:24:27;7.55;;;4.47;;
54823;SDS011;40724;53.196;5.980;2023-04-15T08:26:53;6.57;;;4.32;;
54823;SDS011;40724;53.196;5.980;2023-04-15T08:29:19;7.35;;;4.30;;
54823;SDS011;40724;53.196;5.980;2023-04-15T08:31:45;8.60;;;4.25;;
54823;SDS011;40724;53.196;5.980;2023-04-15T08:34:11;7.32;;;4.50;;
54823;SDS011;40724;53.196;5.980;2023-04-15T08:36:38;9.20;;;4.65;;
54823;SDS011;40724;53.196;5.980;2023-04-15T08:39:04;8.05;;;5.00;;
54823;SDS011;40724;53.196;5.980;2023-04-15T08:41:34;8.80;;;4.25;;
54823;SDS011;40724;53.196;5.980;2023-04-15T08:44:04;9.88;;;5.32;;
54823;SDS011;40724;53.196;5.980;2023-04-15T08:46:30;7.93;;;4.57;;
54823;SDS011;40724;53.196;5.980;2023-04-15T08:48:58;7.20;;;4.38;;
54823;SDS011;40724;53.196;5.980;2023-04-15T08:51:25;9.07;;;4.45;;
54823;SDS011;40724;53.196;5.980;2023-04-15T08:53:52;6.60;;;3.17;;
54823;SDS011;40724;53.196;5.980;2023-04-15T08:56:18;7.40;;;4.30;;
54823;SDS011;40724;53.196;5.980;2023-04-15T08:58:45;8.77;;;4.55;;
54823;SDS011;40724;53.196;5.980;2023-04-15T09:01:11;8.00;;;3.78;;
54823;SDS011;40724;53.196;5.980;2023-04-15T09:03:38;6.72;;;4.20;;
54823;SDS011;40724;53.196;5.980;2023-04-15T09:06:05;4.88;;;3.42;;
54823;SDS011;40724;53.196;5.980;2023-04-15T09:08:32;6.30;;;3.80;;
54823;SDS011;40724;53.196;5.980;2023-04-15T09:11:01;6.50;;;3.47;;
54823;SDS011;40724;53.196;5.980;2023-04-15T09:13:27;8.48;;;4.10;;
54823;SDS011;40724;53.196;5.980;2023-04-15T09:15:54;7.18;;;3.60;;
54823;SDS011;40724;53.196;5.980;2023-04-15T09:18:26;6.78;;;3.15;;
54823;SDS011;40724;53.196;5.980;2023-04-15T09:20:53;5.78;;;3.30;;
54823;SDS011;40724;53.196;5.980;2023-04-15T09:23:19;4.60;;;3.25;;
54823;SDS011;40724;53.196;5.980;2023-04-15T09:25:45;6.90;;;4.03;;
54823;SDS011;40724;53.196;5.980;2023-04-15T09:28:13;5.68;;;3.60;;
54823;SDS011;40724;53.196;5.980;2023-04-15T09:30:41;16.10;;;3.50;;
54823;SDS011;40724;53.196;5.980;2023-04-15T09:33:10;7.55;;;4.18;;
54823;SDS011;40724;53.196;5.980;2023-04-15T09:35:39;5.38;;;3.25;;
54823;SDS011;40724;53.196;5.980;2023-04-15T09:38:06;3.90;;;2.92;;
54823;SDS011;40724;53.196;5.980;2023-04-15T09:40:39;11.60;;;3.03;;
54823;SDS011;40724;53.196;5.980;2023-04-15T09:43:06;8.48;;;2.50;;
54823;SDS011;40724;53.196;5.980;2023-04-15T09:45:33;4.22;;;2.75;;
54823;SDS011;40724;53.196;5.980;2023-04-15T09:50:41;5.88;;;2.40;;
54823;SDS011;40724;53.196;5.980;2023-04-15T09:53:08;5.07;;;2.03;;
54823;SDS011;40724;53.196;5.980;2023-04-15T09:55:36;4.00;;;2.45;;
54823;SDS011;40724;53.196;5.980;2023-04-15T09:58:07;6.05;;;2.20;;
54823;SDS011;40724;53.196;5.980;2023-04-15T10:00:34;4.00;;;2.08;;
54823;SDS011;40724;53.196;5.980;2023-04-15T10:03:01;4.65;;;1.85;;
54823;SDS011;40724;53.196;5.980;2023-04-15T10:05:28;6.38;;;2.25;;
54823;SDS011;40724;53.196;5.980;2023-04-15T10:07:55;5.05;;;2.15;;
54823;SDS011;40724;53.196;5.980;2023-04-15T10:10:21;4.57;;;1.75;;
54823;SDS011;40724;53.196;5.980;2023-04-15T10:12:48;4.00;;;1.90;;
54823;SDS011;40724;53.196;5.980;2023-04-15T10:15:15;6.15;;;2.22;;
54823;SDS011;40724;53.196;5.980;2023-04-15T10:17:42;7.75;;;2.05;;
54823;SDS011;40724;53.196;5.980;2023-04-15T10:20:08;3.33;;;1.58;;
54823;SDS011;40724;53.196;5.980;2023-04-15T10:22:37;3.63;;;1.60;;
54823;SDS011;40724;53.196;5.980;2023-04-15T10:25:03;3.85;;;1.65;;
54823;SDS011;40724;53.196;5.980;2023-04-15T10:27:31;2.70;;;1.58;;
54823;SDS011;40724;53.196;5.980;2023-04-15T10:29:59;3.20;;;1.58;;
54823;SDS011;40724;53.196;5.980;2023-04-15T10:32:27;2.42;;;1.45;;
54823;SDS011;40724;53.196;5.980;2023-04-15T10:34:54;3.35;;;1.83;;
54823;SDS011;40724;53.196;5.980;2023-04-15T10:37:21;3.35;;;1.80;;
54823;SDS011;40724;53.196;5.980;2023-04-15T10:39:48;5.22;;;1.52;;
54823;SDS011;40724;53.196;5.980;2023-04-15T10:42:15;2.85;;;1.77;;
54823;SDS011;40724;53.196;5.980;2023-04-15T10:44:43;2.88;;;1.65;;
54823;SDS011;40724;53.196;5.980;2023-04-15T10:47:10;4.07;;;1.55;;
54823;SDS011;40724;53.196;5.980;2023-04-15T10:49:47;3.70;;;1.60;;
54823;SDS011;40724;53.196;5.980;2023-04-15T10:52:14;3.05;;;1.40;;
54823;SDS011;40724;53.196;5.980;2023-04-15T10:54:41;6.55;;;1.88;;
54823;SDS011;40724;53.196;5.980;2023-04-15T10:57:08;5.03;;;2.28;;
54823;SDS011;40724;53.196;5.980;2023-04-15T10:59:35;3.03;;;1.80;;
54823;SDS011;40724;53.196;5.980;2023-04-15T11:02:05;3.70;;;1.90;;
54823;SDS011;40724;53.196;5.980;2023-04-15T11:12:55;2.80;;;1.58;;
54823;SDS011;40724;53.196;5.980;2023-04-15T11:17:57;3.10;;;1.40;;
54823;SDS011;40724;53.196;5.980;2023-04-15T11:20:24;3.67;;;1.75;;
54823;SDS011;40724;53.196;5.980;2023-04-15T11:22:50;5.20;;;1.85;;
54823;SDS011;40724;53.196;5.980;2023-04-15T11:25:36;3.60;;;1.73;;
54823;SDS011;40724;53.196;5.980;2023-04-15T11:28:02;4.75;;;2.53;;
54823;SDS011;40724;53.196;5.980;2023-04-15T11:30:31;5.78;;;1.75;;
54823;SDS011;40724;53.196;5.980;2023-04-15T11:33:01;3.80;;;1.77;;
54823;SDS011;40724;53.196;5.980;2023-04-15T11:35:28;4.10;;;2.58;;
54823;SDS011;40724;53.196;5.980;2023-04-15T11:37:54;3.70;;;1.98;;
54823;SDS011;40724;53.196;5.980;2023-04-15T11:40:24;5.03;;;1.80;;
54823;SDS011;40724;53.196;5.980;2023-04-15T11:45:29;6.38;;;2.90;;
54823;SDS011;40724;53.196;5.980;2023-04-15T11:48:04;7.68;;;2.45;;
54823;SDS011;40724;53.196;5.980;2023-04-15T11:50:30;9.55;;;2.65;;
54823;SDS011;40724;53.196;5.980;2023-04-15T11:52:57;8.38;;;2.83;;
54823;SDS011;40724;53.196;5.980;2023-04-15T11:55:24;6.28;;;2.47;;
54823;SDS011;40724;53.196;5.980;2023-04-15T12:00:35;7.20;;;2.50;;
54823;SDS011;40724;53.196;5.980;2023-04-15T12:03:12;5.78;;;3.38;;
54823;SDS011;40724;53.196;5.980;2023-04-15T12:08:23;7.63;;;2.28;;
54823;SDS011;40724;53.196;5.980;2023-04-15T12:10:49;6.60;;;1.90;;
54823;SDS011;40724;53.196;5.980;2023-04-15T12:13:15;5.70;;;2.08;;
54823;SDS011;40724;53.196;5.980;2023-04-15T12:15:41;4.40;;;2.20;;
54823;SDS011;40724;53.196;5.980;2023-04-15T12:18:15;6.53;;;2.88;;
54823;SDS011;40724;53.196;5.980;2023-04-15T12:20:45;6.20;;;2.03;;
54823;SDS011;40724;53.196;5.980;2023-04-15T12:23:11;6.80;;;2.00;;
54823;SDS011;40724;53.196;5.980;2023-04-15T12:25:37;6.13;;;3.13;;
54823;SDS011;40724;53.196;5.980;2023-04-15T12:28:10;12.25;;;2.85;;
54823;SDS011;40724;53.196;5.980;2023-04-15T12:33:02;6.80;;;2.10;;
54823;SDS011;40724;53.196;5.980;2023-04-15T12:35:29;9.20;;;2.25;;
54823;SDS011;40724;53.196;5.980;2023-04-15T12:37:55;7.30;;;2.35;;
54823;SDS011;40724;53.196;5.980;2023-04-15T12:40:21;6.65;;;1.75;;
54823;SDS011;40724;53.196;5.980;2023-04-15T12:42:47;5.20;;;1.95;;
54823;SDS011;40724;53.196;5.980;2023-04-15T12:45:13;7.18;;;2.70;;
54823;SDS011;40724;53.196;5.980;2023-04-15T12:47:39;7.70;;;1.98;;
54823;SDS011;40724;53.196;5.980;2023-04-15T12:50:05;5.63;;;2.00;;
54823;SDS011;40724;53.196;5.980;2023-04-15T12:52:32;8.02;;;2.58;;
54823;SDS011;40724;53.196;5.980;2023-04-15T12:54:58;6.60;;;1.73;;
54823;SDS011;40724;53.196;5.980;2023-04-15T12:57:24;5.00;;;1.50;;
54823;SDS011;40724;53.196;5.980;2023-04-15T12:59:50;5.05;;;1.50;;
54823;SDS011;40724;53.196;5.980;2023-04-15T13:02:16;5.13;;;1.48;;
54823;SDS011;40724;53.196;5.980;2023-04-15T13:04:45;8.07;;;2.13;;
54823;SDS011;40724;53.196;5.980;2023-04-15T13:07:11;5.07;;;2.08;;
54823;SDS011;40724;53.196;5.980;2023-04-15T13:09:39;9.40;;;2.92;;
54823;SDS011;40724;53.196;5.980;2023-04-15T13:12:05;7.35;;;2.85;;
54823;SDS011;40724;53.196;5.980;2023-04-15T13:14:32;9.98;;;2.35;;
54823;SDS011;40724;53.196;5.980;2023-04-15T13:16:58;11.45;;;2.17;;
54823;SDS011;40724;53.196;5.980;2023-04-15T13:19:24;5.30;;;2.35;;
54823;SDS011;40724;53.196;5.980;2023-04-15T13:21:51;6.93;;;2.80;;
54823;SDS011;40724;53.196;5.980;2023-04-15T13:24:17;10.18;;;2.10;;
54823;SDS011;40724;53.196;5.980;2023-04-15T13:26:43;7.03;;;1.98;;
54823;SDS011;40724;53.196;5.980;2023-04-15T13:29:09;5.47;;;1.63;;
54823;SDS011;40724;53.196;5.980;2023-04-15T13:31:36;5.60;;;1.83;;
54823;SDS011;40724;53.196;5.980;2023-04-15T13:34:02;5.15;;;2.10;;
54823;SDS011;40724;53.196;5.980;2023-04-15T13:36:28;4.65;;;2.03;;
54823;SDS011;40724;53.196;5.980;2023-04-15T13:38:55;6.35;;;2.45;;
54823;SDS011;40724;53.196;5.980;2023-04-15T13:41:21;7.45;;;2.20;;
54823;SDS011;40724;53.196;5.980;2023-04-15T13:43:48;9.63;;;2.67;;
54823;SDS011;40724;53.196;5.980;2023-04-15T13:46:14;5.57;;;2.75;;
54823;SDS011;40724;53.196;5.980;2023-04-15T13:48:40;5.15;;;2.55;;
54823;SDS011;40724;53.196;5.980;2023-04-15T13:51:06;8.32;;;2.80;;
54823;SDS011;40724;53.196;5.980;2023-04-15T13:53:33;6.70;;;2.63;;
54823;SDS011;40724;53.196;5.980;2023-04-15T14:07:16;6.53;;;2.30;;
54823;SDS011;40724;53.196;5.980;2023-04-15T14:19:38;6.25;;;1.70;;
54823;SDS011;40724;53.196;5.980;2023-04-15T14:22:05;3.88;;;2.53;;
54823;SDS011;40724;53.196;5.980;2023-04-15T14:24:31;10.32;;;2.22;;
54823;SDS011;40724;53.196;5.980;2023-04-15T14:26:57;7.25;;;2.30;;
54823;SDS011;40724;53.196;5.980;2023-04-15T14:29:24;5.45;;;2.25;;
54823;SDS011;40724;53.196;5.980;2023-04-15T14:31:50;6.38;;;2.10;;
54823;SDS011;40724;53.196;5.980;2023-04-15T14:34:16;4.30;;;1.85;;
54823;SDS011;40724;53.196;5.980;2023-04-15T14:36:43;5.80;;;2.90;;
54823;SDS011;40724;53.196;5.980;2023-04-15T14:39:10;6.13;;;2.42;;
54823;SDS011;40724;53.196;5.980;2023-04-15T14:41:36;4.95;;;1.52;;
54823;SDS011;40724;53.196;5.980;2023-04-15T14:44:02;3.63;;;1.55;;
54823;SDS011;40724;53.196;5.980;2023-04-15T14:46:28;7.10;;;1.92;;
54823;SDS011;40724;53.196;5.980;2023-04-15T14:48:55;6.05;;;2.03;;
54823;SDS011;40724;53.196;5.980;2023-04-15T14:51:22;8.02;;;2.58;;
54823;SDS011;40724;53.196;5.980;2023-04-15T14:53:48;5.82;;;2.53;;
54823;SDS011;40724;53.196;5.980;2023-04-15T14:56:14;9.88;;;2.47;;
54823;SDS011;40724;53.196;5.980;2023-04-15T14:58:40;7.50;;;2.75;;
54823;SDS011;40724;53.196;5.980;2023-04-15T15:01:06;7.68;;;1.98;;
54823;SDS011;40724;53.196;5.980;2023-04-15T15:03:33;5.82;;;2.03;;
54823;SDS011;40724;53.196;5.980;2023-04-15T15:05:59;7.47;;;2.78;;
54823;SDS011;40724;53.196;5.980;2023-04-15T15:08:25;12.25;;;2.95;;
54823;SDS011;40724;53.196;5.980;2023-04-15T15:59:28;5.30;;;2.25;;
54823;SDS011;40724;53.196;5.980;2023-04-15T16:01:55;8.27;;;2.38;;
54823;SDS011;40724;53.196;5.980;2023-04-15T16:04:46;6.57;;;1.83;;
54823;SDS011;40724;53.196;5.980;2023-04-15T16:07:14;8.50;;;2.42;;
54823;SDS011;40724;53.196;5.980;2023-04-15T16:09:40;9.32;;;3.42;;
54823;SDS011;40724;53.196;5.980;2023-04-15T16:12:06;14.07;;;3.05;;